sensor_id;sensor_type;location;lat;lon;timestamp;pressure;altitude;pressure_sealevel;temperature;humidity
18201;BME280;9226;47.858;9.594;2023-05-08T00:00:47;95446.53;;;15.47;83.61
18201;BME280;9226;47.858;9.594;2023-05-08T00:03:12;95457.75;;;15.50;83.54
18201;BME280;9226;47.858;9.594;2023-05-08T00:05:40;95450.88;;;15.48;83.58
18201;BME280;9226;47.858;9.594;2023-05-08T00:08:05;95455.09;;;15.50;83.38
18201;BME280;9226;47.858;9.594;2023-05-08T00:10:31;95456.31;;;15.56;82.50
18201;BME280;9226;47.858;9.594;2023-05-08T00:12:57;95449.28;;;15.55;82.71
18201;BME280;9226;47.858;9.594;2023-05-08T00:15:22;95449.22;;;15.47;82.49
18201;BME280;9226;47.858;9.594;2023-05-08T00:17:48;95454.66;;;15.37;83.37
18201;BME280;9226;47.858;9.594;2023-05-08T00:20:13;95455.34;;;15.39;83.32
18201;BME280;9226;47.858;9.594;2023-05-08T00:22:38;95455.78;;;15.34;83.07
18201;BME280;9226;47.858;9.594;2023-05-08T00:25:04;95452.13;;;15.35;83.07
18201;BME280;9226;47.858;9.594;2023-05-08T00:27:30;95457.34;;;15.37;82.88
18201;BME280;9226;47.858;9.594;2023-05-08T00:29:56;95459.22;;;15.45;81.95
18201;BME280;9226;47.858;9.594;2023-05-08T00:32:22;95461.88;;;15.45;81.96
18201;BME280;9226;47.858;9.594;2023-05-08T00:34:48;95454.88;;;15.44;82.10
18201;BME280;9226;47.858;9.594;2023-05-08T00:37:13;95455.91;;;15.51;81.97
18201;BME280;9226;47.858;9.594;2023-05-08T00:39:38;95469.59;;;15.48;81.29
18201;BME280;9226;47.858;9.594;2023-05-08T00:42:04;95466.84;;;15.40;82.20
18201;BME280;9226;47.858;9.594;2023-05-08T00:44:30;95454.47;;;15.38;81.65
18201;BME280;9226;47.858;9.594;2023-05-08T00:46:55;95458.84;;;15.40;81.88
18201;BME280;9226;47.858;9.594;2023-05-08T00:49:21;95455.41;;;15.29;82.77
18201;BME280;9226;47.858;9.594;2023-05-08T00:51:49;95451.44;;;15.33;82.88
18201;BME280;9226;47.858;9.594;2023-05-08T00:54:17;95453.13;;;15.34;82.22
18201;BME280;9226;47.858;9.594;2023-05-08T00:56:43;95453.44;;;15.31;82.29
18201;BME280;9226;47.858;9.594;2023-05-08T00:59:13;95451.44;;;15.33;81.67
18201;BME280;9226;47.858;9.594;2023-05-08T01:01:40;95451.88;;;15.29;82.46
18201;BME280;9226;47.858;9.594;2023-05-08T01:04:06;95456.56;;;15.27;82.28
18201;BME280;9226;47.858;9.594;2023-05-08T01:06:31;95461.38;;;15.23;81.90
18201;BME280;9226;47.858;9.594;2023-05-08T01:08:58;95454.72;;;15.27;81.70
18201;BME280;9226;47.858;9.594;2023-05-08T01:11:28;95449.06;;;15.30;82.10
18201;BME280;9226;47.858;9.594;2023-05-08T01:21:59;95451.22;;;15.09;83.02
18201;BME280;9226;47.858;9.594;2023-05-08T01:27:39;95460.91;;;15.10;82.51
18201;BME280;9226;47.858;9.594;2023-05-08T01:30:44;95467.94;;;15.11;82.16
18201;BME280;9226;47.858;9.594;2023-05-08T01:41:33;95461.16;;;15.16;83.02
18201;BME280;9226;47.858;9.594;2023-05-08T01:44:09;95459.25;;;15.09;83.55
18201;BME280;9226;47.858;9.594;2023-05-08T01:46:36;95471.91;;;15.07;83.15
18201;BME280;9226;47.858;9.594;2023-05-08T01:49:11;95465.56;;;15.08;82.75
18201;BME280;9226;47.858;9.594;2023-05-08T01:51:42;95470.59;;;15.11;82.87
18201;BME280;9226;47.858;9.594;2023-05-08T01:54:11;95469.94;;;15.09;83.44
18201;BME280;9226;47.858;9.594;2023-05-08T01:56:41;95464.44;;;15.10;82.82
18201;BME280;9226;47.858;9.594;2023-05-08T01:59:09;95470.75;;;15.09;83.24
18201;BME280;9226;47.858;9.594;2023-05-08T02:01:35;95475.94;;;15.11;83.61
18201;BME280;9226;47.858;9.594;2023-05-08T02:04:01;95477.38;;;15.05;84.17
18201;BME280;9226;47.858;9.594;2023-05-08T02:06:28;95477.78;;;15.10;83.12
18201;BME280;9226;47.858;9.594;2023-05-08T02:08:56;95477.78;;;15.10;83.63
18201;BME280;9226;47.858;9.594;2023-05-08T02:11:22;95474.03;;;15.21;82.08
18201;BME280;9226;47.858;9.594;2023-05-08T02:13:50;95479.00;;;15.16;83.28
18201;BME280;9226;47.858;9.594;2023-05-08T02:16:17;95488.41;;;15.20;82.86
18201;BME280;9226;47.858;9.594;2023-05-08T02:18:49;95476.03;;;15.19;82.36
18201;BME280;9226;47.858;9.594;2023-05-08T02:21:16;95478.31;;;15.14;83.27
18201;BME280;9226;47.858;9.594;2023-05-08T02:23:44;95478.03;;;15.17;82.67
18201;BME280;9226;47.858;9.594;2023-05-08T02:26:11;95473.19;;;15.20;82.28
18201;BME280;9226;47.858;9.594;2023-05-08T02:28:37;95473.97;;;15.13;83.37
18201;BME280;9226;47.858;9.594;2023-05-08T02:31:04;95472.31;;;15.12;83.23
18201;BME280;9226;47.858;9.594;2023-05-08T02:33:31;95475.66;;;15.14;83.01
18201;BME280;9226;47.858;9.594;2023-05-08T02:35:57;95478.31;;;15.14;83.27
18201;BME280;9226;47.858;9.594;2023-05-08T02:38:24;95472.69;;;15.17;82.69
18201;BME280;9226;47.858;9.594;2023-05-08T02:40:54;95483.44;;;15.07;84.58
18201;BME280;9226;47.858;9.594;2023-05-08T02:43:21;95484.94;;;15.10;84.17
18201;BME280;9226;47.858;9.594;2023-05-08T02:45:51;95479.97;;;14.97;85.13
18201;BME280;9226;47.858;9.594;2023-05-08T02:48:54;95479.59;;;14.92;85.29
18201;BME280;9226;47.858;9.594;2023-05-08T02:51:24;95486.16;;;14.97;84.99
18201;BME280;9226;47.858;9.594;2023-05-08T02:54:10;95483.41;;;14.89;85.96
18201;BME280;9226;47.858;9.594;2023-05-08T02:59:50;95482.88;;;15.04;84.16
18201;BME280;9226;47.858;9.594;2023-05-08T03:02:37;95481.22;;;15.02;84.10
18201;BME280;9226;47.858;9.594;2023-05-08T03:05:16;95479.06;;;14.88;85.83
18201;BME280;9226;47.858;9.594;2023-05-08T03:07:44;95486.06;;;14.89;85.13
18201;BME280;9226;47.858;9.594;2023-05-08T03:10:12;95484.16;;;14.81;86.03
18201;BME280;9226;47.858;9.594;2023-05-08T03:12:44;95472.34;;;14.84;85.58
18201;BME280;9226;47.858;9.594;2023-05-08T03:15:26;95479.22;;;14.87;85.32
18201;BME280;9226;47.858;9.594;2023-05-08T03:17:57;95473.88;;;14.87;86.03
18201;BME280;9226;47.858;9.594;2023-05-08T03:20:26;95477.69;;;14.84;85.94
18201;BME280;9226;47.858;9.594;2023-05-08T03:22:56;95470.66;;;14.83;85.76
18201;BME280;9226;47.858;9.594;2023-05-08T03:25:22;95471.50;;;14.83;85.80
18201;BME280;9226;47.858;9.594;2023-05-08T03:27:48;95471.19;;;14.87;85.27
18201;BME280;9226;47.858;9.594;2023-05-08T03:30:15;95467.00;;;14.84;85.36
18201;BME280;9226;47.858;9.594;2023-05-08T03:32:44;95473.44;;;14.91;84.83
18201;BME280;9226;47.858;9.594;2023-05-08T03:35:10;95472.41;;;14.92;84.79
18201;BME280;9226;47.858;9.594;2023-05-08T03:37:37;95474.25;;;14.92;85.90
18201;BME280;9226;47.858;9.594;2023-05-08T03:40:03;95469.22;;;14.89;85.77
18201;BME280;9226;47.858;9.594;2023-05-08T03:42:30;95471.13;;;14.96;85.41
18201;BME280;9226;47.858;9.594;2023-05-08T03:44:56;95479.16;;;14.96;85.00
18201;BME280;9226;47.858;9.594;2023-05-08T03:47:23;95476.19;;;14.99;84.92
18201;BME280;9226;47.858;9.594;2023-05-08T03:49:50;95472.78;;;14.97;85.07
18201;BME280;9226;47.858;9.594;2023-05-08T03:52:16;95473.50;;;14.99;85.11
18201;BME280;9226;47.858;9.594;2023-05-08T03:54:42;95475.31;;;14.99;84.85
18201;BME280;9226;47.858;9.594;2023-05-08T03:57:07;95478.69;;;15.01;84.79
18201;BME280;9226;47.858;9.594;2023-05-08T04:02:44;95480.50;;;15.00;84.99
18201;BME280;9226;47.858;9.594;2023-05-08T04:05:23;95481.13;;;14.94;85.87
18201;BME280;9226;47.858;9.594;2023-05-08T04:07:55;95485.47;;;14.95;85.80
18201;BME280;9226;47.858;9.594;2023-05-08T04:10:49;95486.94;;;14.90;87.09
18201;BME280;9226;47.858;9.594;2023-05-08T04:13:21;95484.88;;;15.01;85.46
18201;BME280;9226;47.858;9.594;2023-05-08T04:15:51;95493.88;;;15.00;85.95
18201;BME280;9226;47.858;9.594;2023-05-08T04:18:24;95487.31;;;14.95;86.69
18201;BME280;9226;47.858;9.594;2023-05-08T04:20:54;95496.47;;;14.92;87.05
18201;BME280;9226;47.858;9.594;2023-05-08T04:23:21;95496.47;;;14.92;87.05
18201;BME280;9226;47.858;9.594;2023-05-08T04:25:50;95495.09;;;14.88;87.61
18201;BME280;9226;47.858;9.594;2023-05-08T04:28:16;95494.44;;;14.76;88.71
18201;BME280;9226;47.858;9.594;2023-05-08T04:30:43;95496.38;;;14.84;87.93
18201;BME280;9226;47.858;9.594;2023-05-08T04:33:09;95499.72;;;14.86;87.48
18201;BME280;9226;47.858;9.594;2023-05-08T04:35:35;95503.25;;;14.87;88.03
18201;BME280;9226;47.858;9.594;2023-05-08T04:38:01;95502.53;;;14.84;88.40
18201;BME280;9226;47.858;9.594;2023-05-08T04:40:27;95507.66;;;14.78;89.25
18201;BME280;9226;47.858;9.594;2023-05-08T04:42:52;95504.16;;;14.77;88.55
18201;BME280;9226;47.858;9.594;2023-05-08T04:45:18;95508.63;;;14.77;88.41
18201;BME280;9226;47.858;9.594;2023-05-08T04:47:43;95514.88;;;14.68;90.03
18201;BME280;9226;47.858;9.594;2023-05-08T04:50:09;95514.47;;;14.62;90.02
18201;BME280;9226;47.858;9.594;2023-05-08T04:52:34;95516.84;;;14.65;89.35
18201;BME280;9226;47.858;9.594;2023-05-08T04:55:00;95516.00;;;14.65;89.56
18201;BME280;9226;47.858;9.594;2023-05-08T04:57:25;95518.03;;;14.53;90.47
18201;BME280;9226;47.858;9.594;2023-05-08T04:59:51;95518.97;;;14.62;89.77
18201;BME280;9226;47.858;9.594;2023-05-08T05:02:16;95517.69;;;14.56;90.71
18201;BME280;9226;47.858;9.594;2023-05-08T05:04:42;95524.19;;;14.54;90.74
18201;BME280;9226;47.858;9.594;2023-05-08T05:07:07;95519.69;;;14.54;90.51
18201;BME280;9226;47.858;9.594;2023-05-08T05:09:33;95520.81;;;14.61;90.10
18201;BME280;9226;47.858;9.594;2023-05-08T05:12:03;95522.47;;;14.62;89.95
18201;BME280;9226;47.858;9.594;2023-05-08T05:14:29;95526.72;;;14.55;90.88
18201;BME280;9226;47.858;9.594;2023-05-08T05:16:55;95518.41;;;14.58;90.97
18201;BME280;9226;47.858;9.594;2023-05-08T05:19:20;95517.13;;;14.62;89.94
18201;BME280;9226;47.858;9.594;2023-05-08T05:21:45;95521.66;;;14.62;90.15
18201;BME280;9226;47.858;9.594;2023-05-08T05:24:11;95531.66;;;14.60;90.46
18201;BME280;9226;47.858;9.594;2023-05-08T05:26:36;95526.16;;;14.61;90.27
18201;BME280;9226;47.858;9.594;2023-05-08T05:29:02;95527.00;;;14.62;90.74
18201;BME280;9226;47.858;9.594;2023-05-08T05:31:28;95532.59;;;14.59;90.87
18201;BME280;9226;47.858;9.594;2023-05-08T05:33:54;95528.84;;;14.61;91.01
18201;BME280;9226;47.858;9.594;2023-05-08T05:36:19;95526.69;;;14.65;90.55
18201;BME280;9226;47.858;9.594;2023-05-08T05:38:44;95530.91;;;14.58;90.83
18201;BME280;9226;47.858;9.594;2023-05-08T05:41:10;95534.84;;;14.63;90.35
18201;BME280;9226;47.858;9.594;2023-05-08T05:43:35;95539.38;;;14.53;91.36
18201;BME280;9226;47.858;9.594;2023-05-08T05:46:07;95541.66;;;14.38;93.01
18201;BME280;9226;47.858;9.594;2023-05-08T05:48:33;95538.41;;;14.44;92.71
18201;BME280;9226;47.858;9.594;2023-05-08T05:50:59;95536.91;;;14.32;93.79
18201;BME280;9226;47.858;9.594;2023-05-08T05:53:25;95539.38;;;14.53;91.96
18201;BME280;9226;47.858;9.594;2023-05-08T05:55:50;95534.19;;;14.52;92.25
18201;BME280;9226;47.858;9.594;2023-05-08T05:58:16;95536.88;;;14.42;93.75
18201;BME280;9226;47.858;9.594;2023-05-08T06:00:42;95535.44;;;14.47;92.57
18201;BME280;9226;47.858;9.594;2023-05-08T06:03:07;95539.06;;;14.56;91.74
18201;BME280;9226;47.858;9.594;2023-05-08T06:05:34;95538.94;;;14.48;93.25
18201;BME280;9226;47.858;9.594;2023-05-08T06:08:00;95535.56;;;14.56;92.44
18201;BME280;9226;47.858;9.594;2023-05-08T06:10:25;95543.00;;;14.62;92.17
18201;BME280;9226;47.858;9.594;2023-05-08T06:12:51;95538.22;;;14.65;91.97
18201;BME280;9226;47.858;9.594;2023-05-08T06:15:17;95537.41;;;14.55;93.06
18201;BME280;9226;47.858;9.594;2023-05-08T06:17:43;95545.53;;;14.63;92.18
18201;BME280;9226;47.858;9.594;2023-05-08T06:20:08;95547.91;;;14.67;92.08
18201;BME280;9226;47.858;9.594;2023-05-08T06:22:34;95546.94;;;14.68;92.07
18201;BME280;9226;47.858;9.594;2023-05-08T06:25:01;95547.19;;;14.74;91.80
18201;BME280;9226;47.858;9.594;2023-05-08T06:27:27;95550.00;;;14.73;91.77
18201;BME280;9226;47.858;9.594;2023-05-08T06:29:53;95548.50;;;14.60;92.78
18201;BME280;9226;47.858;9.594;2023-05-08T06:32:19;95554.13;;;14.47;94.18
18201;BME280;9226;47.858;9.594;2023-05-08T06:34:44;95547.38;;;14.53;93.60
18201;BME280;9226;47.858;9.594;2023-05-08T06:37:10;95550.50;;;14.48;93.58
18201;BME280;9226;47.858;9.594;2023-05-08T06:39:35;95550.88;;;14.54;93.89
18201;BME280;9226;47.858;9.594;2023-05-08T06:42:01;95555.59;;;14.32;95.01
18201;BME280;9226;47.858;9.594;2023-05-08T06:44:27;95551.22;;;14.41;94.49
18201;BME280;9226;47.858;9.594;2023-05-08T06:46:53;95561.19;;;14.39;95.09
18201;BME280;9226;47.858;9.594;2023-05-08T06:49:19;95557.38;;;14.41;94.56
18201;BME280;9226;47.858;9.594;2023-05-08T06:51:45;95565.78;;;14.46;93.87
18201;BME280;9226;47.858;9.594;2023-05-08T06:54:10;95562.47;;;14.35;95.89
18201;BME280;9226;47.858;9.594;2023-05-08T06:56:35;95563.56;;;14.42;94.63
18201;BME280;9226;47.858;9.594;2023-05-08T06:59:01;95560.75;;;14.43;94.88
18201;BME280;9226;47.858;9.594;2023-05-08T07:01:26;95562.78;;;14.59;93.55
18201;BME280;9226;47.858;9.594;2023-05-08T07:03:52;95558.50;;;14.48;95.22
18201;BME280;9226;47.858;9.594;2023-05-08T07:06:17;95561.31;;;14.47;95.27
18201;BME280;9226;47.858;9.594;2023-05-08T07:08:42;95559.19;;;14.51;94.67
18201;BME280;9226;47.858;9.594;2023-05-08T07:11:08;95558.47;;;14.58;94.33
18201;BME280;9226;47.858;9.594;2023-05-08T07:13:35;95561.97;;;14.59;93.86
18201;BME280;9226;47.858;9.594;2023-05-08T07:16:00;95558.19;;;14.61;93.69
18201;BME280;9226;47.858;9.594;2023-05-08T07:18:25;95564.75;;;14.67;93.50
18201;BME280;9226;47.858;9.594;2023-05-08T07:20:51;95563.13;;;14.46;94.21
18201;BME280;9226;47.858;9.594;2023-05-08T07:23:16;95570.81;;;14.59;93.16
18201;BME280;9226;47.858;9.594;2023-05-08T07:25:42;95564.78;;;14.57;93.52
18201;BME280;9226;47.858;9.594;2023-05-08T07:28:07;95567.06;;;14.52;93.86
18201;BME280;9226;47.858;9.594;2023-05-08T07:30:33;95571.72;;;14.50;93.92
18201;BME280;9226;47.858;9.594;2023-05-08T07:32:58;95576.19;;;14.50;93.98
18201;BME280;9226;47.858;9.594;2023-05-08T07:35:24;95568.28;;;14.58;92.91
18201;BME280;9226;47.858;9.594;2023-05-08T07:37:49;95578.78;;;14.32;93.87
18201;BME280;9226;47.858;9.594;2023-05-08T07:40:15;95577.03;;;14.50;93.48
18201;BME280;9226;47.858;9.594;2023-05-08T07:42:41;95580.41;;;14.52;93.17
18201;BME280;9226;47.858;9.594;2023-05-08T07:45:10;95569.41;;;14.65;92.51
18201;BME280;9226;47.858;9.594;2023-05-08T07:47:37;95575.44;;;14.67;92.38
18201;BME280;9226;47.858;9.594;2023-05-08T07:50:03;95575.59;;;14.65;92.78
18201;BME280;9226;47.858;9.594;2023-05-08T07:52:28;95574.06;;;14.63;93.21
18201;BME280;9226;47.858;9.594;2023-05-08T07:54:54;95577.28;;;14.67;93.58
18201;BME280;9226;47.858;9.594;2023-05-08T07:57:19;95561.69;;;14.62;93.09
18201;BME280;9226;47.858;9.594;2023-05-08T07:59:44;95572.91;;;14.65;94.00
18201;BME280;9226;47.858;9.594;2023-05-08T08:02:10;95580.06;;;14.75;93.21
18201;BME280;9226;47.858;9.594;2023-05-08T08:04:35;95574.66;;;14.84;92.19
18201;BME280;9226;47.858;9.594;2023-05-08T08:07:01;95580.56;;;14.88;91.74
18201;BME280;9226;47.858;9.594;2023-05-08T08:09:26;95574.94;;;14.91;91.08
18201;BME280;9226;47.858;9.594;2023-05-08T08:11:51;95574.94;;;14.91;91.04
18201;BME280;9226;47.858;9.594;2023-05-08T08:14:17;95577.47;;;14.83;91.53
18201;BME280;9226;47.858;9.594;2023-05-08T08:16:42;95578.19;;;14.85;92.57
18201;BME280;9226;47.858;9.594;2023-05-08T08:19:07;95586.84;;;14.97;92.13
18201;BME280;9226;47.858;9.594;2023-05-08T08:21:33;95571.84;;;14.86;91.68
18201;BME280;9226;47.858;9.594;2023-05-08T08:23:58;95585.72;;;14.99;91.26
18201;BME280;9226;47.858;9.594;2023-05-08T08:26:24;95580.38;;;14.99;91.96
18201;BME280;9226;47.858;9.594;2023-05-08T08:28:50;95583.97;;;15.08;90.97
18201;BME280;9226;47.858;9.594;2023-05-08T08:31:16;95577.78;;;15.08;91.41
18201;BME280;9226;47.858;9.594;2023-05-08T08:33:41;95585.50;;;15.11;91.16
18201;BME280;9226;47.858;9.594;2023-05-08T08:36:14;95584.69;;;15.10;90.63
18201;BME280;9226;47.858;9.594;2023-05-08T08:38:39;95579.13;;;15.22;89.95
18201;BME280;9226;47.858;9.594;2023-05-08T08:41:05;95584.03;;;15.26;89.85
18201;BME280;9226;47.858;9.594;2023-05-08T08:43:30;95593.81;;;15.35;89.85
18201;BME280;9226;47.858;9.594;2023-05-08T08:45:56;95583.88;;;15.28;89.53
18201;BME280;9226;47.858;9.594;2023-05-08T08:48:26;95578.38;;;15.29;89.28
18201;BME280;9226;47.858;9.594;2023-05-08T08:50:58;95587.53;;;15.45;88.60
18201;BME280;9226;47.858;9.594;2023-05-08T08:53:34;95587.84;;;15.42;89.10
18201;BME280;9226;47.858;9.594;2023-05-08T08:56:00;95584.09;;;15.34;89.03
18201;BME280;9226;47.858;9.594;2023-05-08T08:58:32;95583.44;;;15.32;89.29
18201;BME280;9226;47.858;9.594;2023-05-08T09:01:01;95587.09;;;15.31;89.63
18201;BME280;9226;47.858;9.594;2023-05-08T09:03:30;95592.63;;;15.20;90.25
18201;BME280;9226;47.858;9.594;2023-05-08T09:05:58;95589.38;;;15.26;90.72
18201;BME280;9226;47.858;9.594;2023-05-08T09:08:25;95591.53;;;15.41;90.70
18201;BME280;9226;47.858;9.594;2023-05-08T09:10:53;95589.75;;;15.31;90.71
18201;BME280;9226;47.858;9.594;2023-05-08T09:13:20;95590.31;;;15.53;89.51
18201;BME280;9226;47.858;9.594;2023-05-08T09:15:46;95592.28;;;15.51;89.59
18201;BME280;9226;47.858;9.594;2023-05-08T09:18:11;95594.81;;;15.52;89.64
18201;BME280;9226;47.858;9.594;2023-05-08T09:20:39;95592.31;;;15.69;89.58
18201;BME280;9226;47.858;9.594;2023-05-08T09:23:05;95596.13;;;15.66;89.16
18201;BME280;9226;47.858;9.594;2023-05-08T09:25:47;95593.53;;;15.74;88.03
18201;BME280;9226;47.858;9.594;2023-05-08T09:28:18;95592.25;;;15.79;88.45
18201;BME280;9226;47.858;9.594;2023-05-08T09:30:52;95591.03;;;15.91;88.89
18201;BME280;9226;47.858;9.594;2023-05-08T09:33:18;95596.28;;;16.19;87.51
18201;BME280;9226;47.858;9.594;2023-05-08T09:35:43;95591.06;;;16.35;87.17
18201;BME280;9226;47.858;9.594;2023-05-08T09:38:32;95593.97;;;16.50;85.90
18201;BME280;9226;47.858;9.594;2023-05-08T09:41:12;95597.97;;;16.72;85.12
18201;BME280;9226;47.858;9.594;2023-05-08T09:43:40;95589.22;;;16.62;82.85
18201;BME280;9226;47.858;9.594;2023-05-08T09:46:19;95592.72;;;16.89;83.41
18201;BME280;9226;47.858;9.594;2023-05-08T09:48:48;95594.47;;;17.06;82.89
18201;BME280;9226;47.858;9.594;2023-05-08T09:51:13;95600.72;;;17.23;82.36
18201;BME280;9226;47.858;9.594;2023-05-08T09:53:39;95602.25;;;17.17;80.96
18201;BME280;9226;47.858;9.594;2023-05-08T09:56:04;95603.81;;;17.36;80.69
18201;BME280;9226;47.858;9.594;2023-05-08T09:58:43;95607.59;;;17.17;79.27
18201;BME280;9226;47.858;9.594;2023-05-08T10:03:53;95604.63;;;17.29;80.39
18201;BME280;9226;47.858;9.594;2023-05-08T10:06:18;95616.03;;;17.39;81.19
18201;BME280;9226;47.858;9.594;2023-05-08T10:08:44;95608.16;;;17.38;80.39
18201;BME280;9226;47.858;9.594;2023-05-08T10:13:40;95606.19;;;17.48;78.51
18201;BME280;9226;47.858;9.594;2023-05-08T10:16:06;95611.00;;;17.36;78.57
18201;BME280;9226;47.858;9.594;2023-05-08T10:18:37;95613.25;;;17.57;78.17
18201;BME280;9226;47.858;9.594;2023-05-08T10:21:06;95612.22;;;17.50;77.22
18201;BME280;9226;47.858;9.594;2023-05-08T10:23:33;95613.09;;;17.67;77.83
18201;BME280;9226;47.858;9.594;2023-05-08T10:26:05;95612.53;;;17.47;77.66
18201;BME280;9226;47.858;9.594;2023-05-08T10:28:38;95605.72;;;17.69;77.76
18201;BME280;9226;47.858;9.594;2023-05-08T10:31:06;95602.72;;;17.72;77.71
18201;BME280;9226;47.858;9.594;2023-05-08T10:33:34;95598.72;;;17.84;78.06
18201;BME280;9226;47.858;9.594;2023-05-08T10:36:04;95595.72;;;17.96;77.12
18201;BME280;9226;47.858;9.594;2023-05-08T10:38:31;95596.69;;;17.86;76.33
18201;BME280;9226;47.858;9.594;2023-05-08T10:41:00;95600.56;;;17.84;76.50
18201;BME280;9226;47.858;9.594;2023-05-08T10:43:28;95601.72;;;17.81;76.81
18201;BME280;9226;47.858;9.594;2023-05-08T10:45:55;95598.06;;;17.90;76.37
18201;BME280;9226;47.858;9.594;2023-05-08T10:53:54;95597.19;;;17.73;75.95
18201;BME280;9226;47.858;9.594;2023-05-08T10:56:25;95602.38;;;17.67;76.30
18201;BME280;9226;47.858;9.594;2023-05-08T10:58:55;95589.94;;;17.66;76.97
18201;BME280;9226;47.858;9.594;2023-05-08T11:01:21;95600.25;;;17.95;76.78
18201;BME280;9226;47.858;9.594;2023-05-08T11:03:47;95590.97;;;17.65;77.02
18201;BME280;9226;47.858;9.594;2023-05-08T11:06:15;95584.91;;;17.71;77.49
18201;BME280;9226;47.858;9.594;2023-05-08T11:08:49;95589.47;;;17.79;78.87
18201;BME280;9226;47.858;9.594;2023-05-08T11:11:23;95587.00;;;18.10;77.56
18201;BME280;9226;47.858;9.594;2023-05-08T11:14:17;95587.69;;;18.29;76.74
18201;BME280;9226;47.858;9.594;2023-05-08T11:19:24;95585.59;;;18.72;75.41
18201;BME280;9226;47.858;9.594;2023-05-08T11:27:17;95580.69;;;19.31;72.59
18201;BME280;9226;47.858;9.594;2023-05-08T11:29:43;95582.34;;;19.01;71.32
18201;BME280;9226;47.858;9.594;2023-05-08T11:32:09;95574.31;;;18.85;71.85
18201;BME280;9226;47.858;9.594;2023-05-08T11:37:22;95570.94;;;18.83;71.44
18201;BME280;9226;47.858;9.594;2023-05-08T11:39:49;95569.94;;;18.75;72.00
18201;BME280;9226;47.858;9.594;2023-05-08T11:45:07;95561.75;;;18.85;71.96
18201;BME280;9226;47.858;9.594;2023-05-08T11:47:37;95562.69;;;18.92;72.01
18201;BME280;9226;47.858;9.594;2023-05-08T11:50:03;95566.09;;;18.86;72.35
18201;BME280;9226;47.858;9.594;2023-05-08T11:52:31;95552.00;;;18.76;72.83
18201;BME280;9226;47.858;9.594;2023-05-08T11:55:03;95553.69;;;18.69;72.72
18201;BME280;9226;47.858;9.594;2023-05-08T11:57:29;95545.56;;;18.77;71.40
18201;BME280;9226;47.858;9.594;2023-05-08T11:59:55;95555.34;;;18.78;71.72
18201;BME280;9226;47.858;9.594;2023-05-08T12:02:36;95552.25;;;19.06;72.18
18201;BME280;9226;47.858;9.594;2023-05-08T12:05:02;95558.06;;;19.17;71.63
18201;BME280;9226;47.858;9.594;2023-05-08T12:07:27;95549.16;;;19.17;71.16
18201;BME280;9226;47.858;9.594;2023-05-08T12:09:53;95556.50;;;19.31;70.99
18201;BME280;9226;47.858;9.594;2023-05-08T12:12:18;95550.56;;;19.67;71.66
18201;BME280;9226;47.858;9.594;2023-05-08T12:14:48;95555.06;;;19.75;69.62
18201;BME280;9226;47.858;9.594;2023-05-08T12:17:16;95553.41;;;19.97;69.42
18201;BME280;9226;47.858;9.594;2023-05-08T12:19:42;95559.09;;;20.02;69.16
18201;BME280;9226;47.858;9.594;2023-05-08T12:22:08;95559.97;;;20.18;68.02
18201;BME280;9226;47.858;9.594;2023-05-08T12:24:33;95568.97;;;20.25;67.35
18201;BME280;9226;47.858;9.594;2023-05-08T12:26:59;95563.47;;;20.41;67.96
18201;BME280;9226;47.858;9.594;2023-05-08T12:29:24;95566.06;;;20.50;68.48
18201;BME280;9226;47.858;9.594;2023-05-08T12:31:50;95567.31;;;20.62;67.42
18201;BME280;9226;47.858;9.594;2023-05-08T12:34:16;95571.16;;;20.83;67.50
18201;BME280;9226;47.858;9.594;2023-05-08T12:36:41;95564.72;;;20.84;67.74
18201;BME280;9226;47.858;9.594;2023-05-08T12:39:11;95563.63;;;20.93;66.34
18201;BME280;9226;47.858;9.594;2023-05-08T12:41:51;95555.44;;;21.01;66.06
18201;BME280;9226;47.858;9.594;2023-05-08T12:44:22;95554.16;;;20.97;64.85
18201;BME280;9226;47.858;9.594;2023-05-08T12:46:49;95555.50;;;21.08;65.10
18201;BME280;9226;47.858;9.594;2023-05-08T12:49:25;95556.28;;;21.02;64.77
18201;BME280;9226;47.858;9.594;2023-05-08T12:54:31;95560.81;;;21.01;66.37
18201;BME280;9226;47.858;9.594;2023-05-08T12:56:56;95562.66;;;21.15;66.17
18201;BME280;9226;47.858;9.594;2023-05-08T12:59:31;95564.53;;;21.15;65.47
18201;BME280;9226;47.858;9.594;2023-05-08T13:01:57;95563.81;;;21.06;66.48
18201;BME280;9226;47.858;9.594;2023-05-08T13:04:22;95568.66;;;20.96;66.84
18201;BME280;9226;47.858;9.594;2023-05-08T13:06:57;95569.47;;;20.96;65.84
18201;BME280;9226;47.858;9.594;2023-05-08T13:09:22;95570.97;;;20.99;66.17
18201;BME280;9226;47.858;9.594;2023-05-08T13:11:48;95575.88;;;20.81;66.74
18201;BME280;9226;47.858;9.594;2023-05-08T13:14:14;95578.22;;;20.69;67.83
18201;BME280;9226;47.858;9.594;2023-05-08T13:16:44;95564.72;;;20.84;67.66
18201;BME280;9226;47.858;9.594;2023-05-08T13:19:10;95568.84;;;20.80;67.96
18201;BME280;9226;47.858;9.594;2023-05-08T13:21:35;95568.06;;;20.86;67.65
18201;BME280;9226;47.858;9.594;2023-05-08T13:24:01;95555.63;;;20.85;66.38
18201;BME280;9226;47.858;9.594;2023-05-08T13:26:26;95570.13;;;20.84;66.96
18201;BME280;9226;47.858;9.594;2023-05-08T13:28:52;95562.69;;;20.86;67.18
18201;BME280;9226;47.858;9.594;2023-05-08T13:31:17;95563.06;;;20.83;67.58
18201;BME280;9226;47.858;9.594;2023-05-08T13:33:42;95567.88;;;20.87;67.54
18201;BME280;9226;47.858;9.594;2023-05-08T13:36:08;95567.97;;;20.79;68.06
18201;BME280;9226;47.858;9.594;2023-05-08T13:38:33;95558.22;;;20.93;67.50
18201;BME280;9226;47.858;9.594;2023-05-08T13:40:59;95560.28;;;20.91;68.79
18201;BME280;9226;47.858;9.594;2023-05-08T13:43:24;95568.47;;;20.83;68.60
18201;BME280;9226;47.858;9.594;2023-05-08T13:45:49;95557.78;;;20.89;68.07
18201;BME280;9226;47.858;9.594;2023-05-08T13:48:15;95558.00;;;21.09;67.63
18201;BME280;9226;47.858;9.594;2023-05-08T13:50:41;95550.50;;;21.05;66.96
18201;BME280;9226;47.858;9.594;2023-05-08T13:53:06;95553.66;;;21.08;67.06
18201;BME280;9226;47.858;9.594;2023-05-08T13:55:31;95554.41;;;21.02;67.40
18201;BME280;9226;47.858;9.594;2023-05-08T13:57:57;95550.97;;;21.08;66.09
18201;BME280;9226;47.858;9.594;2023-05-08T14:00:23;95546.84;;;21.12;66.12
18201;BME280;9226;47.858;9.594;2023-05-08T14:02:48;95551.06;;;21.15;66.60
18201;BME280;9226;47.858;9.594;2023-05-08T14:05:14;95549.19;;;21.15;66.88